createdAt,value
2022-09-23T00:00:14.873Z,28.5
2022-09-23T00:01:16.849Z,28.2
2022-09-23T00:02:19.703Z,28.9
2022-09-23T00:03:21.972Z,28.5
2022-09-23T00:04:24.438Z,28.8
2022-09-23T00:05:26.364Z,28.8
2022-09-23T00:06:28.557Z,28.9
2022-09-23T00:07:30.756Z,28.5
2022-09-23T00:08:32.949Z,28.5
2022-09-23T00:09:35.150Z,28.8
2022-09-23T00:10:37.345Z,28.6
2022-09-23T00:11:39.855Z,28.5
2022-09-23T00:12:42.454Z,28.5
2022-09-23T00:13:44.955Z,28.5
2022-09-23T00:14:47.421Z,28.6
2022-09-23T00:15:49.999Z,28.6
2022-09-23T00:16:52.265Z,29.1
2022-09-23T00:17:55.003Z,28.4
2022-09-23T00:18:57.490Z,28.6
2022-09-23T00:19:59.692Z,28.9
2022-09-23T00:21:01.907Z,28.8
2022-09-23T00:22:03.814Z,29
2022-09-23T00:23:06.402Z,28.4
2022-09-23T00:24:09.361Z,28.7
2022-09-23T00:25:11.852Z,28.7
2022-09-23T00:26:14.057Z,28.6
2022-09-23T00:27:16.273Z,29.2
2022-09-23T00:28:18.827Z,28.7
2022-09-23T00:29:21.324Z,28.7
2022-09-23T00:30:23.648Z,29
2022-09-23T00:31:26.016Z,28.6
2022-09-23T00:32:27.819Z,29.1
2022-09-23T00:33:30.295Z,28.7
2022-09-23T00:34:32.767Z,29
2022-09-23T00:35:35.238Z,28.8
2022-09-23T00:36:37.499Z,28.9
2022-09-23T00:37:39.974Z,28.9
2022-09-23T00:38:42.451Z,28.5
2022-09-23T00:39:44.931Z,28.5
2022-09-23T00:40:47.273Z,28.9
2022-09-23T00:41:49.884Z,28.8
2022-09-23T00:42:52.185Z,28.8
2022-09-23T00:43:54.750Z,28.7
2022-09-23T00:44:56.990Z,28.9
2022-09-23T00:45:59.596Z,29
2022-09-23T00:47:01.880Z,29.1
2022-09-23T00:48:03.576Z,29
2022-09-23T00:49:06.048Z,28.8
2022-09-23T00:50:08.294Z,28.7
2022-09-23T00:51:10.213Z,29
2022-09-23T00:52:12.752Z,29
2022-09-23T00:53:15.220Z,29.1
2022-09-23T00:54:17.143Z,28.8
2022-09-23T00:55:19.338Z,28.7
2022-09-23T00:56:21.845Z,29.2
2022-09-23T00:57:23.759Z,28.6
2022-09-23T00:58:25.701Z,28.9
2022-09-23T00:59:28.217Z,28.6
2022-09-23T01:00:30.814Z,28.7
2022-09-23T01:01:33.373Z,29
2022-09-23T01:02:36.254Z,28.8
2022-09-23T01:03:38.961Z,28.6
2022-09-23T01:04:41.422Z,29.1
2022-09-23T01:05:43.884Z,28.8
2022-09-23T01:06:46.363Z,29.3
2022-09-23T01:07:48.543Z,28.9
2022-09-23T01:08:51.016Z,29
2022-09-23T01:09:53.493Z,29.1
2022-09-23T01:10:55.979Z,29.1
2022-09-23T01:11:58.193Z,29.1
2022-09-23T01:13:00.670Z,29.1
2022-09-23T01:14:03.137Z,29.3
2022-09-23T01:15:05.739Z,29.1
2022-09-23T01:16:08.246Z,29.2
2022-09-23T01:17:11.030Z,29
2022-09-23T01:18:13.512Z,29
2022-09-23T01:19:15.989Z,28.8
2022-09-23T01:20:18.173Z,29
2022-09-23T01:21:20.359Z,29
2022-09-23T01:22:22.555Z,29
2022-09-23T01:23:24.771Z,29.1
2022-09-23T01:24:26.699Z,29.2
2022-09-23T01:25:29.182Z,29
2022-09-23T01:26:31.651Z,29.1
2022-09-23T01:27:33.858Z,29.2
2022-09-23T01:28:35.780Z,28.8
2022-09-23T01:29:37.958Z,28.7
2022-09-23T01:30:40.542Z,28.9
2022-09-23T01:31:43.306Z,28.8
2022-09-23T01:32:45.766Z,29.1
2022-09-23T01:33:48.245Z,28.8
2022-09-23T01:34:50.480Z,29.2
2022-09-23T01:35:52.655Z,28.9
2022-09-23T01:36:54.848Z,29.1
2022-09-23T01:37:57.325Z,28.9
2022-09-23T01:39:00.610Z,29.2
2022-09-23T01:40:03.189Z,28.9
2022-09-23T01:41:05.949Z,29.1
2022-09-23T01:42:08.206Z,29
2022-09-23T01:43:10.430Z,28.9
2022-09-23T01:44:12.898Z,28.8
2022-09-23T01:45:15.369Z,28.9
2022-09-23T01:46:17.897Z,29.3
2022-09-23T01:47:20.196Z,29.2
2022-09-23T01:48:22.707Z,28.9
2022-09-23T01:49:25.247Z,28.9
2022-09-23T01:50:27.717Z,28.9
2022-09-23T01:51:29.911Z,28.8
2022-09-23T01:52:32.384Z,29.1
2022-09-23T01:53:34.306Z,28.8
2022-09-23T01:54:36.218Z,29.1
2022-09-23T01:55:38.692Z,29.2
2022-09-23T01:56:41.159Z,29.1
2022-09-23T01:57:43.633Z,29.3
2022-09-23T01:58:46.116Z,29.3
2022-09-23T01:59:48.603Z,29.2
2022-09-23T02:00:50.888Z,29.1
2022-09-23T02:01:53.871Z,28.9
2022-09-23T02:02:56.086Z,29.1
2022-09-23T02:03:58.292Z,28.9
2022-09-23T02:05:00.786Z,29.1
2022-09-23T02:06:02.994Z,29.1
2022-09-23T02:07:05.193Z,29
2022-09-23T02:08:07.107Z,29
2022-09-23T02:09:09.386Z,29.1
2022-09-23T02:10:11.628Z,29.2
2022-09-23T02:11:13.553Z,29.2
2022-09-23T02:12:15.764Z,28.9
2022-09-23T02:13:17.957Z,29.1
2022-09-23T02:14:20.454Z,28.9
2022-09-23T02:15:22.651Z,29.2
2022-09-23T02:16:24.894Z,28.9
2022-09-23T02:17:27.875Z,28.9
2022-09-23T02:18:30.075Z,29
2022-09-23T02:19:32.549Z,29.1
2022-09-23T02:20:35.021Z,29
2022-09-23T02:21:37.497Z,29
2022-09-23T02:22:39.671Z,28.9
2022-09-23T02:23:42.163Z,29
2022-09-23T02:24:44.656Z,29.2
2022-09-23T02:25:46.572Z,28.8
2022-09-23T02:26:49.056Z,29
2022-09-23T02:27:51.515Z,29.4
2022-09-23T02:28:54.032Z,29.1
2022-09-23T02:29:56.517Z,29.2
2022-09-23T02:30:58.983Z,29
2022-09-23T02:32:01.570Z,28.8
2022-09-23T02:33:04.520Z,29
2022-09-23T02:34:07.030Z,29.3
2022-09-23T02:35:09.312Z,29.1
2022-09-23T02:36:11.797Z,29.1
2022-09-23T02:37:14.267Z,29
2022-09-23T02:38:16.465Z,28.9
2022-09-23T02:39:18.691Z,29.4
2022-09-23T02:40:20.943Z,29
2022-09-23T02:41:23.760Z,29
2022-09-23T02:42:26.234Z,28.7
2022-09-23T02:43:28.428Z,29
2022-09-23T02:44:30.899Z,29.4
2022-09-23T02:45:33.409Z,29.1
2022-09-23T02:46:35.811Z,29.5
2022-09-23T02:47:38.276Z,29
2022-09-23T02:48:40.849Z,29
2022-09-23T02:49:43.345Z,29.2
2022-09-23T02:50:45.813Z,29.5
2022-09-23T02:51:48.012Z,29.3
2022-09-23T02:52:50.228Z,29.1
2022-09-23T02:53:52.708Z,28.9
2022-09-23T02:54:55.189Z,29.1
2022-09-23T02:55:57.657Z,29.1
2022-09-23T02:56:59.599Z,29.1
2022-09-23T02:58:01.794Z,29.2
2022-09-23T02:59:03.716Z,29
2022-09-23T03:00:05.908Z,29
2022-09-23T03:01:08.488Z,29.2
2022-09-23T03:02:11.025Z,29.2
2022-09-23T03:03:13.553Z,29.3
2022-09-23T03:04:16.075Z,29
2022-09-23T03:05:18.347Z,28.9
2022-09-23T03:06:20.811Z,28.9
2022-09-23T03:07:23.298Z,28.8
2022-09-23T03:08:25.489Z,28.9
2022-09-23T03:09:27.395Z,29.1
2022-09-23T03:10:29.866Z,29
2022-09-23T03:11:32.073Z,28.7
2022-09-23T03:12:33.976Z,28.9
2022-09-23T03:13:36.479Z,29
2022-09-23T03:14:38.947Z,28.7
2022-09-23T03:15:41.430Z,28.9
2022-09-23T03:16:44.098Z,28.9
2022-09-23T03:17:46.817Z,28.9
2022-09-23T03:18:49.284Z,28.7
2022-09-23T03:19:51.812Z,28.5
2022-09-23T03:20:54.302Z,28.9
2022-09-23T03:21:56.785Z,29
2022-09-23T03:22:59.247Z,28.6
2022-09-23T03:24:01.770Z,28.8
2022-09-23T03:25:04.359Z,28.6
2022-09-23T03:26:06.276Z,29
2022-09-23T03:27:08.202Z,28.7
2022-09-23T03:28:10.678Z,28.5
2022-09-23T03:29:13.144Z,29
2022-09-23T03:30:15.335Z,28.7
2022-09-23T03:31:17.900Z,28.8
2022-09-23T03:32:20.768Z,28.9
2022-09-23T03:33:25.705Z,29
2022-09-23T03:34:27.723Z,28.8
2022-09-23T03:35:30.308Z,28.4
2022-09-23T03:36:32.799Z,28.9
2022-09-23T03:37:35.272Z,29
2022-09-23T03:38:36.932Z,28.6
2022-09-23T03:39:39.409Z,28.5
2022-09-23T03:40:41.337Z,28.8
2022-09-23T03:41:44.255Z,28.5
2022-09-23T03:42:46.156Z,28.7
2022-09-23T03:43:48.623Z,28.6
2022-09-23T03:44:51.372Z,28.7
2022-09-23T03:45:53.937Z,28.4
2022-09-23T03:46:56.801Z,28.5
2022-09-23T03:47:59.281Z,28.2
2022-09-23T03:49:01.502Z,28.8
2022-09-23T03:50:03.693Z,28.6
2022-09-23T03:51:05.958Z,28.1
2022-09-23T03:52:08.447Z,28.3
2022-09-23T03:53:10.928Z,28.4
2022-09-23T03:54:13.394Z,28.5
2022-09-23T03:55:15.866Z,28.6
2022-09-23T03:56:18.336Z,28.6
2022-09-23T03:57:20.816Z,28.7
2022-09-23T03:58:22.994Z,28.3
2022-09-23T03:59:25.488Z,28.4
2022-09-23T04:00:27.976Z,28.5
2022-09-23T04:01:30.194Z,28.6
2022-09-23T04:02:32.514Z,28.3
2022-09-23T04:03:35.293Z,28.5
2022-09-23T04:04:37.502Z,28.4
2022-09-23T04:05:39.994Z,28.7
2022-09-23T04:06:42.593Z,28.3
2022-09-23T04:07:44.816Z,28.3
2022-09-23T04:08:47.024Z,28.6
2022-09-23T04:09:49.505Z,28.2
2022-09-23T04:10:54.716Z,28.2
2022-09-23T04:11:56.420Z,28.4
2022-09-23T04:12:58.904Z,28.3
2022-09-23T04:14:01.118Z,28.3
2022-09-23T04:15:03.321Z,28.3
2022-09-23T04:16:05.520Z,28.5
2022-09-23T04:17:08.124Z,28.2
2022-09-23T04:18:10.592Z,28.3
2022-09-23T04:19:13.210Z,28.1
2022-09-23T04:20:15.948Z,28.3
2022-09-23T04:21:17.851Z,28.5
2022-09-23T04:22:20.382Z,28.3
2022-09-23T04:23:22.876Z,28.3
2022-09-23T04:24:25.353Z,28.7
2022-09-23T04:25:27.552Z,28.4
2022-09-23T04:26:30.056Z,28.4
2022-09-23T04:27:35.541Z,28.2
2022-09-23T04:28:36.960Z,28.3
2022-09-23T04:29:39.430Z,28.4
2022-09-23T04:30:41.368Z,28.3
2022-09-23T04:31:43.874Z,28.4
2022-09-23T04:32:46.711Z,28.4
2022-09-23T04:33:49.177Z,28.5
2022-09-23T04:34:51.690Z,28.4
2022-09-23T04:35:53.866Z,28.4
2022-09-23T04:36:56.355Z,28.5
2022-09-23T04:37:58.883Z,28.2
2022-09-23T04:39:01.120Z,28.2
2022-09-23T04:40:03.892Z,28.1
2022-09-23T04:41:06.770Z,28.4
2022-09-23T04:42:09.252Z,28.4
2022-09-23T04:43:13.513Z,28.2
2022-09-23T04:44:16.096Z,28.6
2022-09-23T04:45:18.338Z,28
2022-09-23T04:46:21.032Z,28.2
2022-09-23T04:47:23.828Z,28.5
2022-09-23T04:48:26.346Z,28.3
2022-09-23T04:49:28.261Z,28.4
2022-09-23T04:50:30.756Z,28.2
2022-09-23T04:51:33.242Z,28.4
2022-09-23T04:52:35.427Z,28.4
2022-09-23T04:53:37.987Z,28.6
2022-09-23T04:54:40.480Z,28.5
2022-09-23T04:55:42.952Z,28.2
2022-09-23T04:56:45.426Z,28.3
2022-09-23T04:57:47.620Z,28.3
2022-09-23T04:58:49.540Z,28.3
2022-09-23T04:59:52.019Z,28.3
2022-09-23T05:00:54.228Z,28
2022-09-23T05:02:01.517Z,28.3
2022-09-23T05:03:03.824Z,28.1
2022-09-23T05:04:06.317Z,28.3
2022-09-23T05:05:08.531Z,28.4
2022-09-23T05:06:10.751Z,28.1
2022-09-23T05:07:12.928Z,28.4
2022-09-23T05:08:15.423Z,28.2
2022-09-23T05:09:17.990Z,28.3
2022-09-23T05:10:20.208Z,28.3
2022-09-23T05:11:22.397Z,28.3
2022-09-23T05:12:24.597Z,28.4
2022-09-23T05:13:27.072Z,28.2
2022-09-23T05:14:29.543Z,28.4
2022-09-23T05:15:32.019Z,28.2
2022-09-23T05:16:34.315Z,28.2
2022-09-23T05:17:36.725Z,28.4
2022-09-23T05:18:39.339Z,28.4
2022-09-23T05:19:41.878Z,28.1
2022-09-23T05:20:44.147Z,28.3
2022-09-23T05:21:46.789Z,28.4
2022-09-23T05:22:49.017Z,28.2
2022-09-23T05:23:51.558Z,28.2
2022-09-23T05:24:54.096Z,28.2
2022-09-23T05:25:56.601Z,28.4
2022-09-23T05:26:58.767Z,28.1
2022-09-23T05:28:01.233Z,28.3
2022-09-23T05:29:03.470Z,28.2
2022-09-23T05:30:06.130Z,28.1
2022-09-23T05:31:08.520Z,28.5
2022-09-23T05:32:10.799Z,28
2022-09-23T05:33:13.027Z,28.1
2022-09-23T05:34:15.222Z,28.2
2022-09-23T05:35:17.408Z,28.3
2022-09-23T05:36:19.705Z,28.1
2022-09-23T05:37:22.472Z,28.2
2022-09-23T05:38:24.666Z,28.1
2022-09-23T05:39:26.874Z,28.3
2022-09-23T05:40:29.521Z,28.2
2022-09-23T05:41:32.420Z,28.1
2022-09-23T05:42:34.999Z,28.2
2022-09-23T05:43:37.482Z,28.3
2022-09-23T05:44:39.658Z,28.2
2022-09-23T05:45:42.143Z,28
2022-09-23T05:46:44.670Z,28.3
2022-09-23T05:47:47.530Z,28.2
2022-09-23T05:48:49.759Z,28.1
2022-09-23T05:50:00.456Z,28.2
2022-09-23T05:50:57.244Z,28
2022-09-23T05:51:59.445Z,28.1
2022-09-23T05:53:01.726Z,28.2
2022-09-23T05:54:04.516Z,28.2
2022-09-23T05:55:09.207Z,28.2
2022-09-23T05:56:11.463Z,28
2022-09-23T05:57:14.010Z,28.4
2022-09-23T05:58:16.221Z,28.2
2022-09-23T05:59:18.163Z,28.1
2022-09-23T06:00:20.363Z,28.1
2022-09-23T06:01:22.901Z,28.1
2022-09-23T06:02:24.801Z,28
2022-09-23T06:03:27.179Z,28.2
2022-09-23T06:04:29.791Z,28
2022-09-23T06:05:32.269Z,28.3
2022-09-23T06:06:34.741Z,28
2022-09-23T06:07:36.948Z,28.2
2022-09-23T06:08:39.469Z,28.1
2022-09-23T06:09:41.682Z,28.1
2022-09-23T06:10:44.168Z,28.1
2022-09-23T06:11:48.417Z,28.2
2022-09-23T06:12:50.911Z,28.1
2022-09-23T06:13:53.116Z,28.2
2022-09-23T06:14:55.625Z,28.1
2022-09-23T06:15:57.872Z,28
2022-09-23T06:17:00.875Z,28.3
2022-09-23T06:18:03.067Z,28
2022-09-23T06:19:06.386Z,27.9
2022-09-23T06:20:09.040Z,28
2022-09-23T06:21:11.254Z,28.3
2022-09-23T06:22:13.741Z,28.1
2022-09-23T06:23:15.654Z,27.8
2022-09-23T06:24:20.765Z,28.3
2022-09-23T06:25:22.871Z,28.3
2022-09-23T06:26:25.357Z,28.3
2022-09-23T06:27:27.895Z,28
2022-09-23T06:28:29.858Z,28.2
2022-09-23T06:29:32.427Z,28.1
2022-09-23T06:30:34.636Z,27.9
2022-09-23T06:31:36.906Z,28
2022-09-23T06:32:39.824Z,28.2
2022-09-23T06:33:42.305Z,28.3
2022-09-23T06:34:51.394Z,28
2022-09-23T06:35:56.969Z,28.2
2022-09-23T06:36:54.781Z,28
2022-09-23T06:37:57.589Z,28.3
2022-09-23T06:38:59.836Z,28
2022-09-23T06:40:02.346Z,28.2
2022-09-23T06:41:04.916Z,28
2022-09-23T06:42:07.143Z,27.9
2022-09-23T06:43:09.740Z,28.3
2022-09-23T06:44:11.972Z,28.1
2022-09-23T06:45:14.203Z,28.1
2022-09-23T06:46:16.423Z,27.9
2022-09-23T06:47:19.130Z,28.1
2022-09-23T06:48:21.362Z,28.2
2022-09-23T06:49:23.841Z,28
2022-09-23T06:50:25.804Z,28.2
2022-09-23T06:51:28.345Z,28.1
2022-09-23T06:52:30.554Z,27.8
2022-09-23T06:53:32.764Z,27.8
2022-09-23T06:54:34.942Z,28
2022-09-23T06:55:37.449Z,28.2
2022-09-23T06:56:40.203Z,27.8
2022-09-23T06:57:41.966Z,27.9
2022-09-23T06:58:44.229Z,28
2022-09-23T06:59:46.195Z,28.1
2022-09-23T07:00:48.667Z,28
2022-09-23T07:01:50.992Z,28.1
2022-09-23T07:02:53.676Z,28.2
2022-09-23T07:03:56.323Z,28.1
2022-09-23T07:04:58.551Z,28
2022-09-23T07:06:00.762Z,28
2022-09-23T07:07:03.250Z,28.2
2022-09-23T07:08:05.747Z,28
2022-09-23T07:09:08.559Z,28.1
2022-09-23T07:10:11.328Z,28
2022-09-23T07:11:13.623Z,27.8
2022-09-23T07:12:15.849Z,28.2
2022-09-23T07:13:18.039Z,27.9
2022-09-23T07:14:20.639Z,27.9
2022-09-23T07:15:22.988Z,28
2022-09-23T07:16:25.564Z,27.9
2022-09-23T07:17:27.942Z,28.2
2022-09-23T07:18:33.106Z,28.1
2022-09-23T07:19:35.146Z,27.8
2022-09-23T07:20:37.645Z,27.9
2022-09-23T07:21:40.122Z,28.2
2022-09-23T07:22:42.608Z,27.9
2022-09-23T07:23:44.803Z,28
2022-09-23T07:24:47.273Z,27.8
2022-09-23T07:25:49.744Z,28
2022-09-23T07:26:51.997Z,27.8
2022-09-23T07:27:54.466Z,28.1
2022-09-23T07:28:57.090Z,28.1
2022-09-23T07:29:59.672Z,27.8
2022-09-23T07:31:02.543Z,28
2022-09-23T07:32:12.600Z,27.9
2022-09-23T07:33:24.686Z,28.2
2022-09-23T07:34:15.109Z,28
2022-09-23T07:35:17.579Z,27.8
2022-09-23T07:36:19.231Z,28
2022-09-23T07:37:21.402Z,28
2022-09-23T07:38:23.585Z,28
2022-09-23T07:39:25.781Z,28
2022-09-23T07:40:28.018Z,28.2
2022-09-23T07:41:30.329Z,27.9
2022-09-23T07:42:32.560Z,27.9
2022-09-23T07:43:35.033Z,28.1
2022-09-23T07:44:37.527Z,27.9
2022-09-23T07:45:39.556Z,27.8
2022-09-23T07:46:42.127Z,28.2
2022-09-23T07:47:44.641Z,27.8
2022-09-23T07:48:46.857Z,28
2022-09-23T07:49:49.328Z,27.9
2022-09-23T07:50:51.805Z,27.7
2022-09-23T07:51:53.980Z,27.9
2022-09-23T07:52:55.348Z,27.8
2022-09-23T07:53:57.823Z,28
2022-09-23T07:55:00.018Z,28.1
2022-09-23T07:56:02.511Z,27.8
2022-09-23T07:57:04.719Z,27.8
2022-09-23T07:58:07.003Z,28
2022-09-23T07:59:09.264Z,28.1
2022-09-23T08:00:11.589Z,28.3
2022-09-23T08:01:14.171Z,28.1
2022-09-23T08:02:16.963Z,27.9
2022-09-23T08:03:19.222Z,28.1
2022-09-23T08:04:21.758Z,28
2022-09-23T08:05:24.249Z,28.2
2022-09-23T08:06:26.423Z,27.9
2022-09-23T08:07:28.636Z,28
2022-09-23T08:08:31.104Z,27.9
2022-09-23T08:09:33.302Z,27.8
2022-09-23T08:10:35.234Z,27.9
2022-09-23T08:11:37.728Z,28.1
2022-09-23T08:12:39.653Z,28
2022-09-23T08:13:42.157Z,28
2022-09-23T08:14:44.633Z,27.8
2022-09-23T08:15:46.866Z,27.8
2022-09-23T08:16:52.425Z,28.1
2022-09-23T08:17:55.041Z,27.8
2022-09-23T08:18:57.275Z,27.6
2022-09-23T08:19:59.790Z,27.9
2022-09-23T08:21:02.023Z,27.9
2022-09-23T08:22:03.922Z,28
2022-09-23T08:23:06.408Z,28.2
2022-09-23T08:24:08.879Z,28.1
2022-09-23T08:25:11.294Z,27.8
2022-09-23T08:26:19.626Z,27.8
2022-09-23T08:27:18.525Z,28.3
2022-09-23T08:28:20.721Z,27.8
2022-09-23T08:29:22.921Z,28.2
2022-09-23T08:30:25.390Z,27.8
2022-09-23T08:31:28.018Z,27.9
2022-09-23T08:32:30.843Z,27.8
2022-09-23T08:33:33.120Z,28
2022-09-23T08:34:35.593Z,27.7
2022-09-23T08:35:38.095Z,28
2022-09-23T08:36:40.301Z,27.8
2022-09-23T08:37:42.809Z,28.2
2022-09-23T08:38:45.295Z,27.9
2022-09-23T08:39:47.514Z,27.8
2022-09-23T08:40:50.000Z,27.8
2022-09-23T08:41:54.968Z,28
2022-09-23T08:42:56.938Z,28.3
2022-09-23T08:43:58.936Z,28
2022-09-23T08:45:01.345Z,27.9
2022-09-23T08:46:03.567Z,27.9
2022-09-23T08:47:05.990Z,28
2022-09-23T08:48:12.215Z,27.9
2022-09-23T08:49:13.232Z,27.9
2022-09-23T08:50:16.170Z,27.8
2022-09-23T08:51:18.394Z,27.9
2022-09-23T08:52:20.869Z,28.2
2022-09-23T08:53:23.074Z,27.7
2022-09-23T08:54:25.549Z,28
2022-09-23T08:55:28.023Z,27.8
2022-09-23T08:56:30.223Z,27.9
2022-09-23T08:57:32.139Z,28.4
2022-09-23T08:58:34.616Z,28
2022-09-23T08:59:37.133Z,27.9
2022-09-23T09:00:39.647Z,27.7
2022-09-23T09:01:41.345Z,27.8
2022-09-23T09:02:43.604Z,27.9
2022-09-23T09:03:46.367Z,28.1
2022-09-23T09:04:48.878Z,27.8
2022-09-23T09:05:54.326Z,28.3
2022-09-23T09:07:03.551Z,27.7
2022-09-23T09:08:01.089Z,27.5
2022-09-23T09:09:03.158Z,27.7
2022-09-23T09:10:05.670Z,28.1
2022-09-23T09:11:08.162Z,27.8
2022-09-23T09:12:10.638Z,28
2022-09-23T09:13:13.112Z,28
2022-09-23T09:14:15.577Z,28
2022-09-23T09:15:17.800Z,28
2022-09-23T09:16:31.656Z,27.8
2022-09-23T09:17:25.009Z,27.8
2022-09-23T09:18:31.957Z,27.9
2022-09-23T09:19:34.241Z,27.9
2022-09-23T09:20:36.744Z,28
2022-09-23T09:21:39.268Z,28
2022-09-23T09:22:41.744Z,28
2022-09-23T09:23:43.680Z,27.9
2022-09-23T09:24:46.162Z,27.9
2022-09-23T09:25:48.632Z,28
2022-09-23T09:26:50.292Z,27.9
2022-09-23T09:27:52.490Z,27.8
2022-09-23T09:28:59.040Z,27.8
2022-09-23T09:29:59.678Z,27.8
2022-09-23T09:31:01.194Z,27.6
2022-09-23T09:32:03.859Z,27.6
2022-09-23T09:33:05.787Z,28.1
2022-09-23T09:34:08.305Z,27.8
2022-09-23T09:35:10.838Z,28.2
2022-09-23T09:36:13.436Z,27.9
2022-09-23T09:37:15.962Z,28
2022-09-23T09:38:18.132Z,28.1
2022-09-23T09:39:24.148Z,27.7
2022-09-23T09:40:25.355Z,27.9
2022-09-23T09:41:27.425Z,28
2022-09-23T09:42:29.597Z,27.9
2022-09-23T09:43:32.323Z,27.7
2022-09-23T09:44:36.989Z,27.8
2022-09-23T09:45:39.725Z,27.9
2022-09-23T09:46:42.240Z,27.9
2022-09-23T09:47:45.144Z,28.1
2022-09-23T09:48:46.793Z,27.8
2022-09-23T09:49:52.268Z,28
2022-09-23T09:50:54.484Z,27.8
2022-09-23T09:51:57.042Z,28.2
2022-09-23T09:52:59.500Z,28
2022-09-23T09:54:01.705Z,27.8
2022-09-23T09:55:03.931Z,28.1
2022-09-23T09:56:06.183Z,27.7
2022-09-23T09:57:08.407Z,27.8
2022-09-23T09:58:10.350Z,27.6
2022-09-23T09:59:12.577Z,28.1
2022-09-23T10:00:14.522Z,27.6
2022-09-23T10:01:17.048Z,28
2022-09-23T10:02:19.476Z,28.2
2022-09-23T10:03:21.680Z,27.7
2022-09-23T10:04:24.210Z,28
2022-09-23T10:05:26.693Z,27.8
2022-09-23T10:06:28.937Z,27.7
2022-09-23T10:07:31.137Z,27.9
2022-09-23T10:08:33.644Z,27.8
2022-09-23T10:09:36.137Z,27.8
2022-09-23T10:10:38.066Z,27.9
2022-09-23T10:11:40.545Z,28
2022-09-23T10:12:43.274Z,27.8
2022-09-23T10:13:45.455Z,27.8
2022-09-23T10:14:47.384Z,28.3
2022-09-23T10:15:49.867Z,27.7
2022-09-23T10:16:52.142Z,27.9
2022-09-23T10:17:54.854Z,27.8
2022-09-23T10:18:57.350Z,27.9
2022-09-23T10:19:59.547Z,27.8
2022-09-23T10:21:01.859Z,27.7
2022-09-23T10:22:04.453Z,28.3
2022-09-23T10:23:06.686Z,28
2022-09-23T10:24:08.983Z,28
2022-09-23T10:25:11.198Z,27.9
2022-09-23T10:26:13.448Z,28
2022-09-23T10:27:15.670Z,28
2022-09-23T10:28:17.560Z,27.7
2022-09-23T10:29:19.782Z,28
2022-09-23T10:30:22.249Z,27.9
2022-09-23T10:31:24.452Z,28.2
2022-09-23T10:32:26.672Z,27.8
2022-09-23T10:33:29.155Z,28
2022-09-23T10:34:31.642Z,27.6
2022-09-23T10:35:33.843Z,27.8
2022-09-23T10:36:35.746Z,28.1
2022-09-23T10:37:41.743Z,27.7
2022-09-23T10:38:44.244Z,28.1
2022-09-23T10:39:46.651Z,28.1
2022-09-23T10:40:49.162Z,27.9
2022-09-23T10:41:52.487Z,28
2022-09-23T10:42:54.416Z,28
2022-09-23T10:43:56.324Z,28.2
2022-09-23T10:44:58.800Z,28
2022-09-23T10:46:01.065Z,28.1
2022-09-23T10:47:03.620Z,28
2022-09-23T10:48:05.824Z,28
2022-09-23T10:49:08.323Z,27.9
2022-09-23T10:50:10.826Z,28
2022-09-23T10:51:12.885Z,28
2022-09-23T10:52:15.393Z,28.3
2022-09-23T10:53:17.621Z,27.9
2022-09-23T10:54:19.017Z,28.1
2022-09-23T10:55:21.559Z,28.1
2022-09-23T10:56:23.758Z,28
2022-09-23T10:57:25.681Z,27.9
2022-09-23T10:58:27.884Z,27.8
2022-09-23T10:59:30.071Z,28.1
2022-09-23T11:00:32.273Z,27.8
2022-09-23T11:01:34.489Z,28.3
2022-09-23T11:02:37.096Z,28
2022-09-23T11:03:39.325Z,28.2
2022-09-23T11:04:40.770Z,28
2022-09-23T11:05:43.675Z,28
2022-09-23T11:06:45.866Z,28
2022-09-23T11:07:48.361Z,28
2022-09-23T11:08:50.598Z,28
2022-09-23T11:09:52.549Z,28
2022-09-23T11:10:55.062Z,28.2
2022-09-23T11:11:57.554Z,27.9
2022-09-23T11:12:59.764Z,28.2
2022-09-23T11:14:01.958Z,27.8
2022-09-23T11:15:04.457Z,28.2
2022-09-23T11:16:06.361Z,27.7
2022-09-23T11:17:08.670Z,28.1
2022-09-23T11:18:11.560Z,28.3
2022-09-23T11:19:14.049Z,28.1
2022-09-23T11:20:16.242Z,28.3
2022-09-23T11:21:18.766Z,28.1
2022-09-23T11:22:21.286Z,27.9
2022-09-23T11:23:23.223Z,28.2
2022-09-23T11:24:25.442Z,27.9
2022-09-23T11:25:27.941Z,28
2022-09-23T11:26:33.059Z,28.1
2022-09-23T11:27:35.445Z,27.9
2022-09-23T11:28:37.636Z,28
2022-09-23T11:29:40.117Z,27.9
2022-09-23T11:30:42.457Z,28.1
2022-09-23T11:31:45.502Z,27.7
2022-09-23T11:32:47.983Z,28.1
2022-09-23T11:33:50.521Z,28.1
2022-09-23T11:34:54.288Z,28.3
2022-09-23T11:35:57.710Z,27.8
2022-09-23T11:37:00.236Z,28
2022-09-23T11:38:02.777Z,28
2022-09-23T11:39:05.248Z,28
2022-09-23T11:40:07.250Z,27.7
2022-09-23T11:41:10.045Z,28.1
2022-09-23T11:42:12.620Z,27.5
2022-09-23T11:43:15.106Z,28
2022-09-23T11:44:17.580Z,28
2022-09-23T11:45:19.794Z,28.2
2022-09-23T11:46:21.724Z,27.9
2022-09-23T11:47:24.040Z,27.9
2022-09-23T11:48:25.960Z,27.9
2022-09-23T11:49:27.908Z,27.9
2022-09-23T11:50:30.414Z,27.8
2022-09-23T11:51:32.600Z,28.1
2022-09-23T11:52:35.123Z,27.9
2022-09-23T11:53:37.594Z,28
2022-09-23T11:54:40.106Z,27.9
2022-09-23T11:55:51.340Z,28
2022-09-23T11:56:49.097Z,27.6
2022-09-23T11:57:51.857Z,27.9
2022-09-23T11:58:55.503Z,27.8
2022-09-23T11:59:58.789Z,28.3
2022-09-23T12:01:01.598Z,27.8
2022-09-23T12:02:14.962Z,27.9
2022-09-23T12:03:08.645Z,27.8
2022-09-23T12:04:19.421Z,28
2022-09-23T12:05:16.898Z,27.8
2022-09-23T12:06:19.914Z,28.1
2022-09-23T12:07:21.837Z,27.8
2022-09-23T12:08:24.080Z,28.2
2022-09-23T12:09:41.271Z,28.2
2022-09-23T12:10:31.595Z,28.2
2022-09-23T12:11:33.610Z,27.8
2022-09-23T12:12:36.114Z,28.2
2022-09-23T12:13:38.753Z,28.1
2022-09-23T12:14:40.695Z,27.8
2022-09-23T12:15:43.191Z,28.1
2022-09-23T12:16:45.301Z,27.6
2022-09-23T12:17:47.858Z,28
2022-09-23T12:18:50.497Z,27.9
2022-09-23T12:19:52.414Z,27.9
2022-09-23T12:20:54.614Z,28.1
2022-09-23T12:21:57.088Z,28.1
2022-09-23T12:22:59.010Z,27.7
2022-09-23T12:24:01.232Z,27.9
2022-09-23T12:25:03.664Z,28
2022-09-23T12:26:05.880Z,27.9
2022-09-23T12:27:08.374Z,27.6
2022-09-23T12:28:10.582Z,28
2022-09-23T12:29:13.101Z,28.2
2022-09-23T12:30:15.022Z,27.8
2022-09-23T12:31:17.540Z,28
2022-09-23T12:32:20.347Z,27.8
2022-09-23T12:33:22.840Z,28.1
2022-09-23T12:34:25.067Z,28.2
2022-09-23T12:35:27.000Z,27.9
2022-09-23T12:36:29.205Z,28.1
2022-09-23T12:37:31.470Z,27.9
2022-09-23T12:38:33.945Z,27.8
2022-09-23T12:39:36.443Z,27.6
2022-09-23T12:40:38.655Z,28.1
2022-09-23T12:41:41.518Z,27.8
2022-09-23T12:42:44.035Z,27.7
2022-09-23T12:43:46.379Z,28.2
2022-09-23T12:44:48.745Z,28.2
2022-09-23T12:45:51.266Z,27.8
2022-09-23T12:46:53.433Z,27.8
2022-09-23T12:47:55.379Z,28.2
2022-09-23T12:48:57.349Z,27.8
2022-09-23T12:49:59.697Z,28
2022-09-23T12:51:01.913Z,27.9
2022-09-23T12:52:04.127Z,28.2
2022-09-23T12:53:06.358Z,28
2022-09-23T12:54:08.041Z,27.9
2022-09-23T12:55:10.168Z,27.8
2022-09-23T12:56:12.647Z,28
2022-09-23T12:57:15.178Z,27.9
2022-09-23T12:58:17.678Z,28.1
2022-09-23T12:59:19.878Z,28
2022-09-23T13:00:22.385Z,28.2
2022-09-23T13:01:24.987Z,28.2
2022-09-23T13:02:28.626Z,28.3
2022-09-23T13:03:31.242Z,27.9
2022-09-23T13:04:33.433Z,28
2022-09-23T13:05:35.492Z,28.3
2022-09-23T13:06:37.963Z,28
2022-09-23T13:07:39.877Z,27.8
2022-09-23T13:08:41.818Z,28
2022-09-23T13:09:43.751Z,28.1
2022-09-23T13:10:45.971Z,27.9
2022-09-23T13:11:48.444Z,27.9
2022-09-23T13:12:50.919Z,28
2022-09-23T13:13:53.141Z,28
2022-09-23T13:14:55.640Z,28.3
2022-09-23T13:15:58.150Z,28.1
2022-09-23T13:16:59.825Z,28
2022-09-23T13:18:02.312Z,28.3
2022-09-23T13:19:04.472Z,28.1
2022-09-23T13:20:06.433Z,28
2022-09-23T13:21:08.918Z,28
2022-09-23T13:22:11.158Z,28
2022-09-23T13:23:13.376Z,27.9
2022-09-23T13:24:15.597Z,28.1
2022-09-23T13:25:17.524Z,27.7
2022-09-23T13:26:20.000Z,28.4
2022-09-23T13:27:22.505Z,28.3
2022-09-23T13:28:24.991Z,28
2022-09-23T13:29:26.929Z,28.1
2022-09-23T13:30:29.166Z,28
2022-09-23T13:31:31.779Z,28
2022-09-23T13:32:34.577Z,28.4
2022-09-23T13:33:37.063Z,28
2022-09-23T13:34:39.008Z,27.9
2022-09-23T13:35:40.929Z,28.1
2022-09-23T13:36:42.839Z,28
2022-09-23T13:37:44.807Z,28.2
2022-09-23T13:38:47.042Z,28
2022-09-23T13:39:48.677Z,28.1
2022-09-23T13:40:51.245Z,28.1
2022-09-23T13:41:53.757Z,28.1
2022-09-23T13:42:56.230Z,28
2022-09-23T13:43:58.426Z,28.1
2022-09-23T13:45:01.300Z,28
2022-09-23T13:46:03.310Z,28.1
2022-09-23T13:47:05.660Z,28
2022-09-23T13:48:07.839Z,28
2022-09-23T13:49:10.331Z,28
2022-09-23T13:50:12.529Z,28
2022-09-23T13:51:14.727Z,27.8
2022-09-23T13:52:16.914Z,28
2022-09-23T13:53:19.124Z,28.1
2022-09-23T13:54:21.600Z,27.9
2022-09-23T13:55:24.086Z,28.1
2022-09-23T13:56:26.564Z,28
2022-09-23T13:57:29.057Z,27.9
2022-09-23T13:58:30.978Z,28.2
2022-09-23T13:59:33.459Z,28.1
2022-09-23T14:00:35.385Z,28.2
2022-09-23T14:01:37.927Z,28.1
2022-09-23T14:02:40.579Z,28.2